Details for EasyJet at LIMC




Go Back


Latest METAR
Local Time

LIMC 221150Z 17005KT 120V230 CAVOK 28/15 Q1016 NOSIG
22/09/2018, 13:57:26

Description
Results
EasyJet Logo
Number of Pilots based at LIMC
0 Pilots Based here
Number of EasyJet Flights Departed from LIMC
9 Flights Departed
Number of EasyJet Flights Arrived at LIMC
13 Flights Arrived
Number of EasyJet Schedules Departing from LIMC
173 Schedules
Number of EasyJet Schedules Arriving at LIMC
173 Schedules
Number of EasyJet Schedules Departing from LIMC availible today
71 Schedules Today
Number of EasyJet Schedules Arriving at LIMC availible today
71 Schedules Today
Average Landing Rate at LIMC
-261 fpm
EasyJet Average Landing Rate at LIMC
-263 fpm
Total Fuel Purchased at LIMC by EasyJet
40,387.87 kgs / 89,039.10 lbs

Pilots Based at LIMC


Pilot ID
Pilot Name
Pilot Rank
No. of Flights
No. of Flying Hours
There are no pilots assigned to this hub!   Will you be the first?
Content